Terminal Aerodrome Forecast
Issued by NWS

Home | Current Version | Previous Version | Graphics & Text | Print | Product List | Glossary On
Versions: 1 2 3 4 5 6 7 8 9 10 11 12 13 14 15 16 17 18 19
326
FTUS43 KGRB 172332
TAFAUW
TAF
KAUW 172332Z 1800/1824 33004KT P6SM OVC020
     FM180100 31003KT P6SM BKN020 OVC070
     FM180300 26004KT 5SM BR SCT025
     FM180800 26003KT 3SM BR OVC003
     FM181500 22008KT 5SM BR BKN008
     FM181800 22009KT P6SM SCT012=

USA.gov is the U.S. government's official web portal to all federal, state and local government web resources and services.